Time;durP1;ratioP1;P1;durP2;ratioP2;P2;SDS_P1;SDS_P2;PMS_P1;PMS_P2;Temp;Humidity;BMP_temperature;BMP_pressure;BME280_temperature;BME280_humidity;BME280_pressure;Samples;Min_cycle;Max_cycle;Signal;HPM_P1;HPM_P2
2021/05/21 00:01:09;;;;;;;3.75;1.55;;;;;;;;;;5008842;28;20022;-64
2021/05/21 00:03:35;;;;;;;2.53;1.20;;;;;;;;;;5007715;28;20044;-63
2021/05/21 00:06:01;;;;;;;2.35;1.25;;;;;;;;;;5039621;28;20116;-64
2021/05/21 00:08:27;;;;;;;12.00;1.48;;;;;;;;;;5007418;28;20053;-64
2021/05/21 00:10:53;;;;;;;4.20;1.35;;;;;;;;;;5008247;28;20196;-64
2021/05/21 00:13:19;;;;;;;4.43;1.48;;;;;;;;;;5010417;28;20500;-64
2021/05/21 00:15:45;;;;;;;3.35;1.67;;;;;;;;;;5007462;28;20480;-64
2021/05/21 00:18:11;;;;;;;4.38;2.10;;;;;;;;;;5007725;28;20026;-64
2021/05/21 00:20:37;;;;;;;5.57;1.70;;;;;;;;;;5007664;28;20109;-64
2021/05/21 00:23:03;;;;;;;4.35;1.70;;;;;;;;;;5007163;28;20444;-64
2021/05/21 00:25:29;;;;;;;8.63;1.98;;;;;;;;;;5010418;28;20030;-64
2021/05/21 00:27:55;;;;;;;3.58;1.35;;;;;;;;;;5007860;28;20052;-64
2021/05/21 00:30:21;;;;;;;5.15;1.73;;;;;;;;;;5007393;28;20100;-64
2021/05/21 00:32:47;;;;;;;3.92;1.52;;;;;;;;;;5009137;28;20022;-64
2021/05/21 00:35:13;;;;;;;4.80;1.27;;;;;;;;;;5013775;28;20026;-64
2021/05/21 00:37:40;;;;;;;3.80;1.00;;;;;;;;;;5012695;28;20056;-64
2021/05/21 00:40:06;;;;;;;3.70;1.58;;;;;;;;;;5012595;28;20072;-64
2021/05/21 00:42:32;;;;;;;6.15;1.80;;;;;;;;;;5010881;28;20033;-64
2021/05/21 00:44:59;;;;;;;7.60;1.50;;;;;;;;;;5010896;28;20052;-64
2021/05/21 00:47:25;;;;;;;3.95;1.73;;;;;;;;;;5010892;28;20026;-64
2021/05/21 00:49:51;;;;;;;4.38;1.80;;;;;;;;;;5011238;28;20101;-64
2021/05/21 00:52:18;;;;;;;6.93;1.95;;;;;;;;;;5013624;28;20026;-64
2021/05/21 00:54:45;;;;;;;3.42;1.50;;;;;;;;;;5011196;28;20057;-64
2021/05/21 00:57:11;;;;;;;2.60;1.30;;;;;;;;;;5010910;28;20026;-64
2021/05/21 00:59:37;;;;;;;2.50;1.20;;;;;;;;;;5009776;28;20024;-64
2021/05/21 01:02:03;;;;;;;4.13;1.55;;;;;;;;;;5010665;28;20503;-64
2021/05/21 01:04:29;;;;;;;4.05;1.13;;;;;;;;;;5013546;28;20038;-64
2021/05/21 01:06:55;;;;;;;4.85;1.60;;;;;;;;;;5011514;28;20501;-64
2021/05/21 01:09:21;;;;;;;3.53;1.27;;;;;;;;;;5010496;28;20086;-64
2021/05/21 01:11:47;;;;;;;3.15;1.60;;;;;;;;;;5010793;28;20026;-64
2021/05/21 01:14:13;;;;;;;4.13;1.50;;;;;;;;;;5009691;28;20665;-64
2021/05/21 01:16:39;;;;;;;5.68;1.50;;;;;;;;;;5012479;28;20071;-64
2021/05/21 01:19:05;;;;;;;4.63;1.30;;;;;;;;;;5011916;28;20045;-64
2021/05/21 01:21:32;;;;;;;8.35;1.58;;;;;;;;;;5010354;28;20025;-64
2021/05/21 01:23:58;;;;;;;4.35;1.65;;;;;;;;;;5010192;28;20041;-64
2021/05/21 01:26:25;;;;;;;3.70;1.40;;;;;;;;;;5010058;28;20026;-64
2021/05/21 01:28:53;;;;;;;4.75;1.40;;;;;;;;;;5010763;28;20054;-64
2021/05/21 01:31:19;;;;;;;4.65;1.63;;;;;;;;;;5013210;28;20481;-64
2021/05/21 01:33:45;;;;;;;5.47;1.17;;;;;;;;;;5009744;28;20030;-64
2021/05/21 01:36:11;;;;;;;4.35;1.48;;;;;;;;;;5011981;28;20390;-64
2021/05/21 01:38:37;;;;;;;4.22;1.40;;;;;;;;;;5009897;28;20042;-64
2021/05/21 01:41:04;;;;;;;2.08;1.05;;;;;;;;;;5009972;28;20431;-64
2021/05/21 01:43:30;;;;;;;2.88;1.00;;;;;;;;;;5012077;28;20065;-64
2021/05/21 01:45:57;;;;;;;4.15;1.50;;;;;;;;;;5010428;28;20018;-64
2021/05/21 01:48:23;;;;;;;12.18;1.50;;;;;;;;;;5009690;28;20440;-64
2021/05/21 01:50:48;;;;;;;4.22;1.50;;;;;;;;;;5010013;28;20030;-64
2021/05/21 01:53:14;;;;;;;3.47;1.52;;;;;;;;;;5009849;28;20069;-64
2021/05/21 01:55:49;;;;;;;5.25;1.90;;;;;;;;;;5011499;28;20076;-64
2021/05/21 01:58:15;;;;;;;3.78;1.33;;;;;;;;;;5011622;28;20050;-64
2021/05/21 02:00:41;;;;;;;5.38;1.52;;;;;;;;;;5009432;28;20432;-64
2021/05/21 02:03:07;;;;;;;2.97;1.25;;;;;;;;;;5009293;28;20030;-64
2021/05/21 02:05:33;;;;;;;3.47;1.17;;;;;;;;;;5009771;28;20049;-64
2021/05/21 02:07:59;;;;;;;4.43;1.30;;;;;;;;;;5009367;28;20052;-64
2021/05/21 02:10:25;;;;;;;2.38;1.10;;;;;;;;;;5012525;28;20030;-64
2021/05/21 02:12:51;;;;;;;2.30;1.10;;;;;;;;;;5009583;28;20041;-64
2021/05/21 02:15:17;;;;;;;5.93;1.08;;;;;;;;;;5009150;28;20026;-64
2021/05/21 02:17:43;;;;;;;3.80;1.08;;;;;;;;;;5008981;28;20485;-64
2021/05/21 02:20:09;;;;;;;3.20;1.20;;;;;;;;;;5009268;28;20088;-64
2021/05/21 02:22:39;;;;;;;4.25;1.63;;;;;;;;;;5009083;28;20025;-64
2021/05/21 02:25:05;;;;;;;5.88;1.10;;;;;;;;;;5009989;28;20053;-64
2021/05/21 02:27:31;;;;;;;3.03;0.90;;;;;;;;;;5008962;28;20026;-64
2021/05/21 02:29:57;;;;;;;4.88;1.10;;;;;;;;;;5009106;28;20492;-64
2021/05/21 02:32:24;;;;;;;5.00;1.42;;;;;;;;;;5008836;28;20020;-64
2021/05/21 02:34:50;;;;;;;1.85;1.27;;;;;;;;;;5010586;28;20056;-64
2021/05/21 02:37:16;;;;;;;2.95;1.35;;;;;;;;;;5012280;28;20481;-63
2021/05/21 02:39:42;;;;;;;2.55;1.15;;;;;;;;;;5008857;28;20042;-64
2021/05/21 02:42:08;;;;;;;2.70;1.40;;;;;;;;;;5008727;28;20079;-64
2021/05/21 02:44:34;;;;;;;2.05;1.10;;;;;;;;;;5008432;28;20057;-64
2021/05/21 02:47:00;;;;;;;2.38;1.20;;;;;;;;;;5008933;28;20026;-64
2021/05/21 02:49:26;;;;;;;4.22;1.10;;;;;;;;;;5011981;28;20022;-64
2021/05/21 02:51:53;;;;;;;3.78;1.30;;;;;;;;;;5009779;28;20409;-64
2021/05/21 02:54:20;;;;;;;3.65;2.22;;;;;;;;;;5008019;28;20061;-64
2021/05/21 02:56:46;;;;;;;5.25;1.20;;;;;;;;;;5007988;28;20110;-64
2021/05/21 02:59:12;;;;;;;3.50;1.33;;;;;;;;;;5008660;28;20386;-64
2021/05/21 03:01:38;;;;;;;3.03;1.10;;;;;;;;;;5010630;28;20048;-64
2021/05/21 03:04:05;;;;;;;2.92;1.20;;;;;;;;;;5009186;28;20085;-64
2021/05/21 03:06:31;;;;;;;1.92;1.00;;;;;;;;;;5008440;28;20112;-64
2021/05/21 03:08:56;;;;;;;1.92;0.90;;;;;;;;;;5008461;28;20156;-64
2021/05/21 03:11:22;;;;;;;3.53;1.10;;;;;;;;;;5008058;28;20021;-64
2021/05/21 03:13:48;;;;;;;3.42;0.98;;;;;;;;;;5009076;28;20080;-64
2021/05/21 03:16:15;;;;;;;3.67;0.90;;;;;;;;;;5010800;28;20026;-64
2021/05/21 03:18:41;;;;;;;4.82;1.23;;;;;;;;;;5007898;28;20034;-64
2021/05/21 03:21:07;;;;;;;3.45;1.40;;;;;;;;;;5008253;28;20030;-64
2021/05/21 03:23:33;;;;;;;3.60;0.98;;;;;;;;;;5008254;28;20113;-64
2021/05/21 03:26:00;;;;;;;4.47;1.30;;;;;;;;;;5007645;28;20137;-63
2021/05/21 03:28:26;;;;;;;2.30;1.27;;;;;;;;;;5011214;28;20481;-64
2021/05/21 03:30:52;;;;;;;4.88;1.67;;;;;;;;;;5009882;28;20466;-64
2021/05/21 03:33:18;;;;;;;2.78;1.40;;;;;;;;;;5007968;28;20072;-64
2021/05/21 03:35:44;;;;;;;2.72;1.30;;;;;;;;;;5009966;28;20018;-63
2021/05/21 03:38:11;;;;;;;5.57;1.48;;;;;;;;;;5007495;28;20461;-64
2021/05/21 03:40:37;;;;;;;3.15;1.30;;;;;;;;;;5010004;28;20101;-64
2021/05/21 03:43:04;;;;;;;3.22;1.30;;;;;;;;;;5008793;28;20507;-64
2021/05/21 03:45:31;;;;;;;6.15;1.33;;;;;;;;;;5007475;28;20040;-62
2021/05/21 03:47:57;;;;;;;4.53;1.40;;;;;;;;;;5007813;28;20101;-64
2021/05/21 03:50:23;;;;;;;3.38;0.98;;;;;;;;;;5007949;28;20584;-64
2021/05/21 03:52:49;;;;;;;3.05;1.13;;;;;;;;;;5008411;28;20082;-64
2021/05/21 03:55:16;;;;;;;3.10;1.10;;;;;;;;;;5009323;28;20026;-64
2021/05/21 03:57:43;;;;;;;2.53;0.98;;;;;;;;;;5007411;28;20108;-64
2021/05/21 04:00:11;;;;;;;3.38;1.23;;;;;;;;;;5008057;28;20083;-64
2021/05/21 04:02:37;;;;;;;4.20;1.23;;;;;;;;;;4997588;28;20465;-64
2021/05/21 04:05:03;;;;;;;5.03;1.40;;;;;;;;;;5005848;28;20050;-64
2021/05/21 04:07:29;;;;;;;5.50;1.40;;;;;;;;;;5013228;28;20448;-64
2021/05/21 04:09:55;;;;;;;4.07;1.10;;;;;;;;;;5012224;28;20057;-64
2021/05/21 04:12:21;;;;;;;4.55;1.17;;;;;;;;;;5011476;28;20489;-64
2021/05/21 04:14:48;;;;;;;5.18;1.17;;;;;;;;;;5010409;28;20176;-64
2021/05/21 04:17:14;;;;;;;2.42;1.02;;;;;;;;;;5011474;28;20022;-64
2021/05/21 04:19:40;;;;;;;4.55;0.90;;;;;;;;;;5013802;28;20101;-64
2021/05/21 04:22:06;;;;;;;3.95;1.17;;;;;;;;;;5012574;28;20026;-64
2021/05/21 04:24:32;;;;;;;3.47;1.40;;;;;;;;;;5010989;28;20461;-64
2021/05/21 04:26:58;;;;;;;5.35;1.13;;;;;;;;;;5010776;28;20397;-64
2021/05/21 04:29:24;;;;;;;5.03;1.50;;;;;;;;;;5011519;28;20113;-64
2021/05/21 04:31:50;;;;;;;2.58;1.27;;;;;;;;;;5012092;28;20026;-64
2021/05/21 04:34:16;;;;;;;4.82;1.55;;;;;;;;;;5013360;28;20026;-64
2021/05/21 04:36:42;;;;;;;4.53;1.50;;;;;;;;;;5013031;28;20440;-64
2021/05/21 04:39:07;;;;;;;3.65;1.50;;;;;;;;;;5011063;28;20060;-64
2021/05/21 04:41:33;;;;;;;2.72;1.45;;;;;;;;;;5010450;28;20029;-64
2021/05/21 04:43:59;;;;;;;4.07;1.58;;;;;;;;;;5010929;28;20030;-64
2021/05/21 04:46:25;;;;;;;5.55;1.40;;;;;;;;;;5013476;28;20026;-64
2021/05/21 04:48:51;;;;;;;3.88;1.83;;;;;;;;;;5012662;28;20432;-64
2021/05/21 04:51:17;;;;;;;5.32;2.13;;;;;;;;;;5010697;28;20034;-64
2021/05/21 04:53:43;;;;;;;6.03;1.55;;;;;;;;;;5010432;28;20026;-64
2021/05/21 04:56:10;;;;;;;2.83;1.50;;;;;;;;;;5010265;28;20378;-64
2021/05/21 04:58:36;;;;;;;3.97;1.75;;;;;;;;;;5013142;28;20065;-64
2021/05/21 05:01:03;;;;;;;3.97;1.50;;;;;;;;;;5011686;28;20021;-64
2021/05/21 05:03:29;;;;;;;5.53;1.60;;;;;;;;;;5010550;28;20087;-64
2021/05/21 05:05:55;;;;;;;5.90;1.40;;;;;;;;;;5009320;28;20029;-64
2021/05/21 05:08:21;;;;;;;7.68;1.55;;;;;;;;;;5010800;28;20026;-64
2021/05/21 05:10:48;;;;;;;5.32;1.30;;;;;;;;;;5011925;28;20022;-64
2021/05/21 05:13:14;;;;;;;2.78;1.10;;;;;;;;;;5012950;28;20029;-65
2021/05/21 05:15:41;;;;;;;5.03;1.13;;;;;;;;;;5010284;28;20029;-65
2021/05/21 05:18:07;;;;;;;3.17;1.30;;;;;;;;;;5008607;28;20058;-65
2021/05/21 05:20:34;;;;;;;4.93;1.50;;;;;;;;;;5009971;28;20033;-65
2021/05/21 05:23:00;;;;;;;4.22;1.20;;;;;;;;;;5010447;28;20100;-65
2021/05/21 05:25:26;;;;;;;3.15;1.20;;;;;;;;;;5013533;28;20022;-65
2021/05/21 05:27:52;;;;;;;3.00;1.23;;;;;;;;;;5011541;28;20026;-65
2021/05/21 05:30:19;;;;;;;2.85;1.02;;;;;;;;;;5009749;28;20448;-65
2021/05/21 05:32:45;;;;;;;3.20;1.25;;;;;;;;;;5009451;28;20029;-65
2021/05/21 05:35:11;;;;;;;1.75;1.20;;;;;;;;;;5012067;28;20026;-65
2021/05/21 05:37:38;;;;;;;4.15;1.35;;;;;;;;;;5011665;28;20046;-65
2021/05/21 05:40:04;;;;;;;4.45;1.30;;;;;;;;;;5011112;28;20033;-65
2021/05/21 05:42:30;;;;;;;5.15;1.20;;;;;;;;;;5009583;28;20030;-65
2021/05/21 05:44:56;;;;;;;2.03;1.27;;;;;;;;;;5009457;28;20428;-63
2021/05/21 05:47:22;;;;;;;2.38;1.20;;;;;;;;;;5009494;28;20026;-63
2021/05/21 05:49:48;;;;;;;3.67;1.30;;;;;;;;;;5010419;28;20659;-63
2021/05/21 05:52:14;;;;;;;2.90;1.10;;;;;;;;;;5011848;28;20025;-64
2021/05/21 05:54:40;;;;;;;3.80;0.90;;;;;;;;;;5009767;28;20029;-66
2021/05/21 05:57:06;;;;;;;2.63;1.10;;;;;;;;;;5009077;28;20030;-65
2021/05/21 05:59:32;;;;;;;3.33;1.02;;;;;;;;;;5009614;28;20495;-65
2021/05/21 06:01:59;;;;;;;3.17;1.25;;;;;;;;;;5009497;28;20033;-65
2021/05/21 06:04:25;;;;;;;4.47;1.40;;;;;;;;;;5012714;28;20061;-62
2021/05/21 06:06:51;;;;;;;4.55;1.30;;;;;;;;;;5009150;28;20026;-62
2021/05/21 06:09:17;;;;;;;3.90;1.60;;;;;;;;;;5009190;28;20436;-64
2021/05/21 06:11:44;;;;;;;8.93;2.00;;;;;;;;;;5008948;28;20033;-65
2021/05/21 06:14:10;;;;;;;6.18;2.00;;;;;;;;;;5009261;28;20334;-65
2021/05/21 06:16:36;;;;;;;4.25;1.33;;;;;;;;;;5004471;28;20101;-65
2021/05/21 06:19:02;;;;;;;7.10;1.48;;;;;;;;;;5009165;28;20034;-65
2021/05/21 06:21:28;;;;;;;3.05;1.40;;;;;;;;;;5009360;28;20486;-65
2021/05/21 06:23:54;;;;;;;5.85;1.30;;;;;;;;;;5007184;28;20033;-62
2021/05/21 06:28:50;;;;;;;3.90;1.10;;;;;;;;;;5010042;28;20141;-62
2021/05/21 06:31:16;;;;;;;3.08;1.10;;;;;;;;;;5010100;28;20108;-62
2021/05/21 06:33:42;;;;;;;3.05;1.20;;;;;;;;;;5002285;28;20034;-62
2021/05/21 06:36:08;;;;;;;1.67;1.17;;;;;;;;;;5005151;28;20034;-63
2021/05/21 06:38:34;;;;;;;4.30;1.23;;;;;;;;;;5003267;28;20049;-63
2021/05/21 06:41:00;;;;;;;3.10;1.10;;;;;;;;;;5008669;28;20027;-63
2021/05/21 06:43:30;;;;;;;2.97;1.00;;;;;;;;;;5011605;28;20503;-63
2021/05/21 06:45:56;;;;;;;3.63;1.25;;;;;;;;;;5009002;28;20377;-63
2021/05/21 06:48:26;;;;;;;2.63;1.17;;;;;;;;;;5008211;28;20036;-63
2021/05/21 06:50:52;;;;;;;2.55;1.00;;;;;;;;;;5007976;28;20026;-63
2021/05/21 06:53:21;;;;;;;5.03;1.00;;;;;;;;;;5008406;28;20033;-65
2021/05/21 06:55:48;;;;;;;4.47;1.50;;;;;;;;;;5009771;28;20425;-65
2021/05/21 06:58:13;;;;;;;3.53;1.20;;;;;;;;;;5010109;28;20029;-65
2021/05/21 07:00:42;;;;;;;3.95;1.10;;;;;;;;;;5007767;28;20389;-64
2021/05/21 07:03:08;;;;;;;1.30;0.70;;;;;;;;;;5008220;28;20037;-65
2021/05/21 07:05:34;;;;;;;3.05;0.82;;;;;;;;;;5008359;28;20034;-65
2021/05/21 07:08:00;;;;;;;6.13;1.00;;;;;;;;;;5007631;28;20074;-65
2021/05/21 07:10:26;;;;;;;2.42;1.15;;;;;;;;;;5010854;28;20054;-65
2021/05/21 07:12:53;;;;;;;2.05;0.90;;;;;;;;;;5009148;28;20018;-65
2021/05/21 07:15:19;;;;;;;1.42;0.77;;;;;;;;;;5040119;28;20040;-65
2021/05/21 07:17:46;;;;;;;5.00;1.38;;;;;;;;;;5007678;28;20040;-65
2021/05/21 07:20:13;;;;;;;7.95;1.45;;;;;;;;;;5006133;28;20022;-65
2021/05/21 07:22:40;;;;;;;5.55;1.00;;;;;;;;;;5009194;28;20029;-64
2021/05/21 07:25:09;;;;;;;7.72;1.00;;;;;;;;;;5008294;28;20041;-65
2021/05/21 07:27:37;;;;;;;6.22;1.10;;;;;;;;;;5007799;28;20041;-64
2021/05/21 07:30:03;;;;;;;4.90;1.00;;;;;;;;;;5007569;28;20065;-65
2021/05/21 07:32:29;;;;;;;6.05;1.00;;;;;;;;;;5007953;28;20037;-63
2021/05/21 07:34:55;;;;;;;2.45;0.90;;;;;;;;;;5008960;28;20073;-63
2021/05/21 07:37:21;;;;;;;2.45;0.90;;;;;;;;;;5011119;28;20150;-63
2021/05/21 07:39:47;;;;;;;4.05;0.85;;;;;;;;;;5007565;28;20041;-63
2021/05/21 07:42:13;;;;;;;7.43;1.10;;;;;;;;;;5007390;28;20041;-63
2021/05/21 07:44:39;;;;;;;3.53;0.80;;;;;;;;;;5007295;28;20428;-63
2021/05/21 07:47:05;;;;;;;5.10;0.98;;;;;;;;;;5007138;28;20038;-65
2021/05/21 07:49:32;;;;;;;2.95;0.80;;;;;;;;;;5010245;28;20029;-65
2021/05/21 07:51:58;;;;;;;3.95;0.90;;;;;;;;;;5008697;28;20141;-63
2021/05/21 07:54:24;;;;;;;3.17;0.90;;;;;;;;;;5007461;28;20113;-63
2021/05/21 07:56:50;;;;;;;2.45;0.93;;;;;;;;;;5007155;28;20022;-63
2021/05/21 07:59:17;;;;;;;2.70;0.90;;;;;;;;;;5007371;28;20085;-63
2021/05/21 08:01:43;;;;;;;2.47;0.70;;;;;;;;;;5008739;28;20125;-63
2021/05/21 08:04:09;;;;;;;1.85;0.85;;;;;;;;;;5009140;28;20113;-63
2021/05/21 08:06:35;;;;;;;3.35;0.82;;;;;;;;;;5007589;28;20109;-62
2021/05/21 08:09:05;;;;;;;3.08;0.98;;;;;;;;;;5007027;28;20033;-63
2021/05/21 08:11:32;;;;;;;3.22;0.85;;;;;;;;;;5007330;28;20088;-63
2021/05/21 08:13:58;;;;;;;1.45;0.73;;;;;;;;;;5007700;28;20470;-63
2021/05/21 08:16:24;;;;;;;1.67;0.70;;;;;;;;;;5010882;28;20033;-63
2021/05/21 08:18:50;;;;;;;2.75;0.80;;;;;;;;;;5007266;28;20029;-63
2021/05/21 08:21:16;;;;;;;2.78;0.82;;;;;;;;;;5006904;28;20469;-63
2021/05/21 08:23:42;;;;;;;4.38;0.82;;;;;;;;;;5007183;28;20073;-63
2021/05/21 08:26:09;;;;;;;4.05;0.93;;;;;;;;;;5007469;28;20050;-63
2021/05/21 08:28:35;;;;;;;1.63;0.80;;;;;;;;;;5009351;28;20036;-62
2021/05/21 08:31:02;;;;;;;2.58;0.90;;;;;;;;;;5007757;28;20034;-65
2021/05/21 08:33:28;;;;;;;3.80;0.90;;;;;;;;;;5007141;28;20026;-65
2021/05/21 08:35:54;;;;;;;2.78;0.80;;;;;;;;;;5009567;28;20025;-65
2021/05/21 08:38:20;;;;;;;3.13;1.00;;;;;;;;;;5007281;28;20501;-63
2021/05/21 08:40:48;;;;;;;1.85;0.82;;;;;;;;;;5008070;28;20038;-65
2021/05/21 08:43:14;;;;;;;1.90;0.67;;;;;;;;;;5008864;28;20064;-63
2021/05/21 08:45:41;;;;;;;2.85;1.10;;;;;;;;;;5007072;28;20026;-65
2021/05/21 08:48:14;;;;;;;3.15;1.15;;;;;;;;;;5007034;28;20055;-64
2021/05/21 08:50:40;;;;;;;4.20;0.98;;;;;;;;;;5006834;28;20057;-63
2021/05/21 08:53:06;;;;;;;3.90;1.00;;;;;;;;;;5007203;28;20126;-63
2021/05/21 08:55:32;;;;;;;3.13;1.00;;;;;;;;;;5012602;28;20503;-64
2021/05/21 08:57:58;;;;;;;4.10;1.08;;;;;;;;;;5010735;28;20026;-64
2021/05/21 09:00:24;;;;;;;4.68;0.95;;;;;;;;;;5010265;28;20030;-63
2021/05/21 09:02:51;;;;;;;4.18;1.00;;;;;;;;;;5010432;28;20026;-64
2021/05/21 09:05:17;;;;;;;3.28;0.90;;;;;;;;;;5010527;28;20054;-64
2021/05/21 09:07:43;;;;;;;3.17;0.98;;;;;;;;;;5012646;28;20026;-64
2021/05/21 09:10:10;;;;;;;2.13;1.00;;;;;;;;;;5011809;28;20385;-64
2021/05/21 09:12:43;;;;;;;3.05;0.77;;;;;;;;;;5008172;28;20034;-64
2021/05/21 09:15:11;;;;;;;8.98;0.85;;;;;;;;;;5010051;28;20038;-64
2021/05/21 09:17:37;;;;;;;3.90;0.90;;;;;;;;;;5010100;28;20104;-64
2021/05/21 09:20:04;;;;;;;2.58;1.17;;;;;;;;;;5010083;28;20030;-64
2021/05/21 09:22:30;;;;;;;1.75;0.80;;;;;;;;;;5012831;28;20018;-64
2021/05/21 09:24:56;;;;;;;3.03;0.82;;;;;;;;;;5010853;28;20374;-64
2021/05/21 09:27:22;;;;;;;3.75;1.23;;;;;;;;;;5009770;28;20072;-64
2021/05/21 09:29:48;;;;;;;3.45;1.17;;;;;;;;;;5009781;28;20022;-64
2021/05/21 09:32:15;;;;;;;5.68;1.20;;;;;;;;;;5009401;28;20054;-64
2021/05/21 09:34:42;;;;;;;5.88;1.10;;;;;;;;;;5012115;28;20023;-64
2021/05/21 09:37:19;;;;;;;3.63;1.05;;;;;;;;;;5013190;28;20084;-63
2021/05/21 09:39:45;;;;;;;;;;;;;;;;;;5009224;28;20061;-63
2021/05/21 09:42:11;;;;;;;2.38;0.85;;;;;;;;;;5008838;28;19909;-62
2021/05/21 09:44:37;;;;;;;2.38;0.75;;;;;;;;;;5009908;28;20497;-63
2021/05/21 09:47:03;;;;;;;4.50;0.80;;;;;;;;;;5009821;28;20022;-62
2021/05/21 09:49:37;;;;;;;2.15;1.00;;;;;;;;;;5012637;28;20109;-62
2021/05/21 09:52:07;;;;;;;2.10;0.80;;;;;;;;;;5011860;28;20029;-63
2021/05/21 09:54:48;;;;;;;5.50;1.20;;;;;;;;;;5008356;28;20030;-62
2021/05/21 09:57:15;;;;;;;2.45;1.08;;;;;;;;;;5008049;28;20061;-62
2021/05/21 09:59:46;;;;;;;3.95;1.10;;;;;;;;;;5008330;28;20029;-62
2021/05/21 10:02:31;;;;;;;4.68;0.88;;;;;;;;;;5009813;28;20029;-62
2021/05/21 10:05:00;;;;;;;1.75;0.90;;;;;;;;;;5009973;28;20060;-62
2021/05/21 10:07:26;;;;;;;3.30;1.00;;;;;;;;;;5002400;28;20029;-62
2021/05/21 10:09:52;;;;;;;7.22;1.17;;;;;;;;;;5003608;28;20045;-62
2021/05/21 10:12:18;;;;;;;2.70;0.93;;;;;;;;;;5003447;28;20493;-62
2021/05/21 10:14:51;;;;;;;3.25;1.00;;;;;;;;;;5002954;28;20037;-63
2021/05/21 10:17:23;;;;;;;3.53;1.05;;;;;;;;;;5010083;28;20066;-63
2021/05/21 10:19:49;;;;;;;6.55;1.42;;;;;;;;;;5002309;28;20033;-63
2021/05/21 10:22:26;;;;;;;5.70;1.10;;;;;;;;;;5011895;28;20022;-62
2021/05/21 10:24:54;;;;;;;5.30;1.48;;;;;;;;;;5003187;28;20114;-62
2021/05/21 10:27:21;;;;;;;8.70;1.67;;;;;;;;;;5002644;28;20041;-59
2021/05/21 10:29:53;;;;;;;1.77;1.00;;;;;;;;;;5005315;28;21331;-62
2021/05/21 10:32:27;;;;;;;8.18;1.13;;;;;;;;;;5005396;28;20034;-61
2021/05/21 10:34:54;;;;;;;3.58;1.20;;;;;;;;;;5009361;28;20041;-60
2021/05/21 10:37:21;;;;;;;5.45;1.10;;;;;;;;;;5009146;28;20026;-59
2021/05/21 10:39:58;;;;;;;5.82;1.30;;;;;;;;;;5005604;28;20034;-61
2021/05/21 10:42:24;;;;;;;4.93;1.33;;;;;;;;;;5006743;28;20085;-61
2021/05/21 10:44:51;;;;;;;3.08;1.30;;;;;;;;;;5005556;28;20042;-60
2021/05/21 10:47:17;;;;;;;4.65;1.38;;;;;;;;;;5006660;28;20442;-61
2021/05/21 10:50:03;;;;;;;3.97;1.20;;;;;;;;;;5003106;28;20037;-61
2021/05/21 10:52:47;;;;;;;4.75;1.10;;;;;;;;;;5008994;28;20160;-63
2021/05/21 10:55:13;;;;;;;8.38;1.17;;;;;;;;;;5024877;28;20477;-64
2021/05/21 10:57:40;;;;;;;6.57;1.40;;;;;;;;;;5006574;28;20405;-64
2021/05/21 11:00:07;;;;;;;7.22;1.30;;;;;;;;;;5006418;28;20033;-64
2021/05/21 11:02:43;;;;;;;5.43;1.40;;;;;;;;;;5004895;28;20097;-64
2021/05/21 11:05:22;;;;;;;3.78;1.40;;;;;;;;;;5007178;28;20042;-64
2021/05/21 11:07:48;;;;;;;6.47;1.40;;;;;;;;;;5010212;28;20038;-64
2021/05/21 11:10:26;;;;;;;3.85;1.40;;;;;;;;;;5009766;28;20022;-65
2021/05/21 11:12:55;;;;;;;5.38;1.23;;;;;;;;;;5008311;28;20053;-63
2021/05/21 11:15:37;;;;;;;2.08;1.10;;;;;;;;;;5008010;28;20479;-63
2021/05/21 11:18:26;;;;;;;4.32;1.30;;;;;;;;;;5007784;28;20052;-63
2021/05/21 11:21:13;;;;;;;3.10;1.35;;;;;;;;;;5003979;28;20156;-63
2021/05/21 11:23:50;;;;;;;7.72;1.40;;;;;;;;;;5007704;28;20105;-63
2021/05/21 11:26:19;;;;;;;7.15;1.30;;;;;;;;;;5007803;28;20490;-63
2021/05/21 11:28:54;;;;;;;4.95;1.20;;;;;;;;;;5009861;28;20042;-63
2021/05/21 11:31:25;;;;;;;3.90;1.50;;;;;;;;;;5010194;28;20370;-63
2021/05/21 11:33:51;;;;;;;5.68;1.52;;;;;;;;;;5007742;28;20030;-63
2021/05/21 11:36:18;;;;;;;4.53;1.23;;;;;;;;;;5009992;28;20026;-63
2021/05/21 11:38:44;;;;;;;8.15;1.30;;;;;;;;;;5007446;28;20069;-63
2021/05/21 11:41:13;;;;;;;7.38;1.30;;;;;;;;;;5008009;28;20082;-63
2021/05/21 11:43:38;;;;;;;;;;;;;;;;;;5010009;28;20026;-63
2021/05/21 11:46:05;;;;;;;4.13;1.27;;;;;;;;;;5008238;28;20021;-63
2021/05/21 11:48:35;;;;;;;4.10;1.30;;;;;;;;;;5007822;28;20045;-63
2021/05/21 11:51:01;;;;;;;5.75;1.40;;;;;;;;;;5007805;28;20385;-63
2021/05/21 11:53:30;;;;;;;4.57;1.45;;;;;;;;;;5007681;28;20141;-63
2021/05/21 11:55:57;;;;;;;7.28;1.60;;;;;;;;;;4992176;28;20037;-63
2021/05/21 11:58:27;;;;;;;6.45;1.38;;;;;;;;;;5011197;28;20033;-63
2021/05/21 12:01:00;;;;;;;3.97;1.30;;;;;;;;;;5009256;28;20022;-63
2021/05/21 12:03:38;;;;;;;5.05;1.30;;;;;;;;;;5006906;28;20034;-63
2021/05/21 12:06:05;;;;;;;5.80;1.35;;;;;;;;;;5007196;28;20108;-63
2021/05/21 12:08:31;;;;;;;3.60;1.35;;;;;;;;;;5007845;28;20093;-63
2021/05/21 12:10:58;;;;;;;4.88;1.50;;;;;;;;;;5007267;28;20034;-63
2021/05/21 12:13:28;;;;;;;6.55;1.50;;;;;;;;;;5010235;28;20069;-63
2021/05/21 12:16:07;;;;;;;6.90;1.55;;;;;;;;;;5009340;28;20428;-64
2021/05/21 12:18:33;;;;;;;4.57;1.20;;;;;;;;;;5007468;28;20026;-64
2021/05/21 12:20:59;;;;;;;7.05;1.50;;;;;;;;;;5007179;28;20090;-63
2021/05/21 12:23:35;;;;;;;3.65;1.30;;;;;;;;;;5007432;28;20485;-63
2021/05/21 12:26:02;;;;;;;7.43;1.42;;;;;;;;;;4990775;28;22696;-64
2021/05/21 12:28:28;;;;;;;5.77;1.70;;;;;;;;;;5011781;28;20101;-63
2021/05/21 12:30:57;;;;;;;6.35;1.40;;;;;;;;;;5011510;28;20469;-63
2021/05/21 12:33:23;;;;;;;3.10;1.13;;;;;;;;;;5010791;28;20069;-62
2021/05/21 12:35:49;;;;;;;6.05;1.80;;;;;;;;;;5012530;28;20033;-62
2021/05/21 12:38:15;;;;;;;6.95;1.73;;;;;;;;;;5010757;28;20516;-62
2021/05/21 12:40:50;;;;;;;7.85;1.52;;;;;;;;;;5012914;28;20018;-62
2021/05/21 12:43:16;;;;;;;5.60;1.50;;;;;;;;;;5012645;28;20034;-63
2021/05/21 12:46:04;;;;;;;6.75;1.85;;;;;;;;;;5010519;28;20030;-64
2021/05/21 12:48:51;;;;;;;5.22;1.60;;;;;;;;;;5010847;28;20033;-63
2021/05/21 12:51:21;;;;;;;7.43;1.33;;;;;;;;;;5010128;28;20046;-63
2021/05/21 12:53:48;;;;;;;6.03;1.20;;;;;;;;;;5010474;28;20014;-63
2021/05/21 12:56:31;;;;;;;7.30;1.80;;;;;;;;;;5010711;28;20035;-63
2021/05/21 12:58:57;;;;;;;5.57;1.50;;;;;;;;;;4994561;28;20051;-63
2021/05/21 13:01:23;;;;;;;6.30;1.85;;;;;;;;;;5012705;28;20028;-63
2021/05/21 13:03:56;;;;;;;5.10;1.65;;;;;;;;;;5009597;28;20089;-63
2021/05/21 13:06:26;;;;;;;6.25;1.42;;;;;;;;;;5009947;28;20112;-63
2021/05/21 13:08:52;;;;;;;8.52;1.70;;;;;;;;;;5042425;28;20370;-63
2021/05/21 13:11:18;;;;;;;4.28;1.70;;;;;;;;;;5010441;28;20410;-63
2021/05/21 13:13:44;;;;;;;6.07;1.42;;;;;;;;;;5012189;28;20084;-63
2021/05/21 13:16:10;;;;;;;5.75;1.70;;;;;;;;;;5011443;28;20032;-63
2021/05/21 13:18:39;;;;;;;5.93;1.60;;;;;;;;;;5009696;28;20105;-63
2021/05/21 13:21:06;;;;;;;9.45;1.75;;;;;;;;;;5010228;28;20058;-63
2021/05/21 13:23:32;;;;;;;5.63;1.70;;;;;;;;;;5010031;28;20037;-63
2021/05/21 13:26:01;;;;;;;3.97;1.63;;;;;;;;;;5011382;28;20022;-64
2021/05/21 13:28:27;;;;;;;5.13;1.40;;;;;;;;;;5006879;28;20478;-63
2021/05/21 13:30:53;;;;;;;5.75;1.80;;;;;;;;;;5005844;28;20075;-63
2021/05/21 13:33:19;;;;;;;10.30;2.00;;;;;;;;;;5005022;28;20025;-63
2021/05/21 13:35:45;;;;;;;9.10;1.90;;;;;;;;;;5007465;28;20030;-63
2021/05/21 13:38:12;;;;;;;5.43;1.60;;;;;;;;;;5008819;28;20144;-63
2021/05/21 13:40:38;;;;;;;7.53;1.77;;;;;;;;;;5001171;28;20010;-63
2021/05/21 13:43:04;;;;;;;11.13;2.03;;;;;;;;;;5002318;28;20080;-63
2021/05/21 13:45:30;;;;;;;5.75;1.85;;;;;;;;;;5003706;28;20497;-63
2021/05/21 13:47:57;;;;;;;4.35;1.70;;;;;;;;;;5008997;28;20087;-63
2021/05/21 13:50:23;;;;;;;6.63;1.90;;;;;;;;;;5009194;28;20025;-63
2021/05/21 13:52:49;;;;;;;4.68;1.90;;;;;;;;;;5010590;28;20308;-63
2021/05/21 13:55:15;;;;;;;5.47;1.90;;;;;;;;;;5011060;28;20034;-63
2021/05/21 13:57:42;;;;;;;4.10;2.13;;;;;;;;;;5008787;28;20063;-63
2021/05/21 14:00:08;;;;;;;9.27;2.22;;;;;;;;;;5007948;28;20465;-63
2021/05/21 14:02:34;;;;;;;9.30;2.22;;;;;;;;;;5006993;28;20101;-63
2021/05/21 14:05:00;;;;;;;6.47;2.25;;;;;;;;;;5008058;28;20160;-63
2021/05/21 14:07:28;;;;;;;9.57;2.40;;;;;;;;;;5011057;28;20026;-63
2021/05/21 14:09:54;;;;;;;6.18;2.40;;;;;;;;;;5009509;28;20056;-63
2021/05/21 14:12:20;;;;;;;6.15;2.50;;;;;;;;;;5007156;28;20037;-63
2021/05/21 14:14:46;;;;;;;9.70;2.60;;;;;;;;;;5008184;28;20065;-63
2021/05/21 14:17:12;;;;;;;4.25;2.28;;;;;;;;;;5008828;28;20168;-63
2021/05/21 14:19:38;;;;;;;10.00;2.25;;;;;;;;;;5011437;28;20481;-63
2021/05/21 14:22:04;;;;;;;5.38;2.28;;;;;;;;;;5009869;28;20030;-63
2021/05/21 14:24:30;;;;;;;7.03;2.17;;;;;;;;;;5008737;28;20030;-63
2021/05/21 14:26:56;;;;;;;9.02;2.33;;;;;;;;;;5008590;28;20021;-63
2021/05/21 14:29:22;;;;;;;7.05;2.83;;;;;;;;;;5007756;28;20033;-63
2021/05/21 14:31:49;;;;;;;4.82;2.25;;;;;;;;;;5009324;28;20092;-64
2021/05/21 14:34:20;;;;;;;9.73;2.40;;;;;;;;;;5010674;28;20038;-64
2021/05/21 14:36:46;;;;;;;10.23;2.60;;;;;;;;;;5010661;28;20422;-63
2021/05/21 14:39:13;;;;;;;5.13;2.35;;;;;;;;;;5007918;28;20201;-63
2021/05/21 14:41:40;;;;;;;7.28;2.55;;;;;;;;;;5008165;28;20028;-64
2021/05/21 14:44:06;;;;;;;5.93;2.35;;;;;;;;;;5008414;28;20077;-64
2021/05/21 14:46:32;;;;;;;8.65;2.97;;;;;;;;;;5010934;28;20105;-64